Terminal Aerodrome Forecast
Issued by NWS Buffalo, NY

Home | Current Version | Previous Version | Text Only | Print | Product List | Glossary On
Versions: 1 2 3 4 5 6 7 8 9 10 11 12 13 14 15 16 17 18
000
FTUS41 KBUF 251138
TAFART
TAF
KART 251138Z 2512/2612 18006KT 6SM -RA SCT050 BKN080
     FM251600 19010KT P6SM SCT050 BKN090
     FM260100 19006KT P6SM VCSH BKN080
     FM260500 21012KT P6SM VCSH BKN050 WS020/23040KT
     FM260900 22010KT P6SM BKN200=

USA.gov is the U.S. government's official web portal to all federal, state and local government web resources and services.